createdAt,value
2018-12-15T00:02:11.025Z,85.84
2018-12-15T00:04:39.497Z,86.03
2018-12-15T00:07:08.103Z,86.94
2018-12-15T00:09:36.438Z,86.68
2018-12-15T00:12:04.873Z,85.13
2018-12-15T00:14:33.257Z,85.46
2018-12-15T00:17:05.688Z,85.76
2018-12-15T00:19:31.912Z,86.78
2018-12-15T00:22:00.274Z,86.29
2018-12-15T00:24:28.792Z,86.82
2018-12-15T00:26:57.105Z,86.42
2018-12-15T00:29:25.378Z,85.26
2018-12-15T00:31:53.697Z,86.09
2018-12-15T00:34:22.065Z,85.24
2018-12-15T00:36:50.433Z,85.78
2018-12-15T00:39:18.735Z,86.83
2018-12-15T00:41:47.094Z,86.60
2018-12-15T00:44:15.589Z,86.36
2018-12-15T00:46:43.936Z,87.17
2018-12-15T00:49:12.241Z,87.18
2018-12-15T00:51:40.541Z,87.20
2018-12-15T00:54:08.935Z,86.76
2018-12-15T00:56:37.349Z,87.25
2018-12-15T00:59:05.759Z,86.29
2018-12-15T01:01:34.365Z,87.15
2018-12-15T01:04:02.696Z,85.35
2018-12-15T01:06:31.057Z,85.31
2018-12-15T01:08:59.373Z,85.68
2018-12-15T01:11:27.713Z,85.14
2018-12-15T01:13:56.082Z,84.75
2018-12-15T01:16:24.428Z,85.92
2018-12-15T01:18:52.716Z,85.12
2018-12-15T01:21:21.136Z,85.56
2018-12-15T01:23:49.476Z,85.12
2018-12-15T01:26:17.878Z,84.38
2018-12-15T01:28:46.177Z,84.75
2018-12-15T01:31:14.545Z,84.97
2018-12-15T01:33:42.871Z,84.53
2018-12-15T01:36:11.221Z,84.81
2018-12-15T01:38:39.641Z,84.45
2018-12-15T01:41:08.064Z,84.11
2018-12-15T01:43:36.422Z,83.79
2018-12-15T01:46:04.890Z,83.66
2018-12-15T01:48:33.261Z,83.33
2018-12-15T01:51:01.694Z,82.97
2018-12-15T01:53:29.980Z,83.08
2018-12-15T01:55:58.262Z,83.74
2018-12-15T01:58:26.605Z,83.25
2018-12-15T02:00:54.921Z,82.62
2018-12-15T02:03:23.276Z,83.63
2018-12-15T02:05:51.611Z,83.67
2018-12-15T02:08:26.671Z,82.68
2018-12-15T02:10:54.945Z,82.60
2018-12-15T02:13:23.257Z,82.34
2018-12-15T02:15:51.594Z,82.75
2018-12-15T02:18:19.917Z,82.15
2018-12-15T02:20:48.436Z,82.35
2018-12-15T02:23:16.830Z,83.22
2018-12-15T02:25:45.228Z,83.06
2018-12-15T02:28:13.505Z,81.59
2018-12-15T02:30:41.840Z,81.05
2018-12-15T02:33:10.174Z,80.29
2018-12-15T02:35:38.485Z,82.03
2018-12-15T02:38:06.925Z,81.92
2018-12-15T02:40:35.291Z,82.18
2018-12-15T02:43:03.652Z,83.26
2018-12-15T02:45:31.979Z,82.66
2018-12-15T02:48:00.382Z,83.27
2018-12-15T02:50:28.795Z,82.85
2018-12-15T02:52:57.113Z,82.59
2018-12-15T02:55:25.624Z,83.88
2018-12-15T02:57:54.015Z,83.71
2018-12-15T03:00:22.373Z,83.73
2018-12-15T03:02:50.675Z,83.77
2018-12-15T03:05:19.005Z,84.15
2018-12-15T03:07:47.285Z,84.08
2018-12-15T03:10:15.680Z,83.96
2018-12-15T03:12:43.980Z,82.98
2018-12-15T03:15:12.337Z,83.87
2018-12-15T03:17:40.735Z,84.35
2018-12-15T03:20:09.079Z,84.26
2018-12-15T03:22:37.379Z,84.28
2018-12-15T03:25:06.373Z,84.95
2018-12-15T03:27:34.639Z,84.91
2018-12-15T03:30:02.999Z,84.13
2018-12-15T03:32:31.478Z,83.81
2018-12-15T03:34:59.931Z,83.22
2018-12-15T03:37:28.233Z,82.99
2018-12-15T03:39:56.602Z,82.68
2018-12-15T03:42:24.885Z,80.54
2018-12-15T03:44:53.282Z,82.16
2018-12-15T03:47:21.578Z,82.17
2018-12-15T03:49:49.893Z,83.54
2018-12-15T03:52:18.232Z,82.92
2018-12-15T03:54:46.568Z,83.33
2018-12-15T03:57:14.954Z,82.38
2018-12-15T03:59:43.334Z,83.33
2018-12-15T04:02:11.950Z,82.47
2018-12-15T04:04:40.379Z,82.63
2018-12-15T04:07:08.687Z,82.67
2018-12-15T04:09:37.045Z,82.86
2018-12-15T04:12:05.321Z,82.77
2018-12-15T04:14:33.709Z,83.10
2018-12-15T04:17:01.995Z,82.90
2018-12-15T04:19:30.316Z,82.66
2018-12-15T04:22:10.014Z,81.75
2018-12-15T04:24:38.361Z,81.12
2018-12-15T04:27:06.774Z,82.04
2018-12-15T04:29:35.121Z,81.83
2018-12-15T04:32:03.606Z,79.54
2018-12-15T04:34:31.879Z,79.34
2018-12-15T04:37:00.388Z,78.39
2018-12-15T04:39:28.717Z,81.11
2018-12-15T04:41:57.012Z,80.02
2018-12-15T04:44:25.290Z,79.95
2018-12-15T04:46:53.909Z,78.91
2018-12-15T04:49:23.145Z,80.24
2018-12-15T04:51:51.535Z,79.78
2018-12-15T04:54:19.807Z,81.00
2018-12-15T04:56:48.096Z,80.64
2018-12-15T04:59:16.383Z,81.45
2018-12-15T05:01:44.682Z,81.38
2018-12-15T05:04:12.964Z,81.25
2018-12-15T05:06:41.376Z,82.73
2018-12-15T05:09:09.647Z,82.56
2018-12-15T05:11:37.955Z,79.84
2018-12-15T05:14:06.254Z,80.93
2018-12-15T05:16:34.565Z,81.06
2018-12-15T05:19:02.857Z,81.38
2018-12-15T05:21:31.167Z,80.24
2018-12-15T05:23:59.454Z,79.45
2018-12-15T05:26:27.805Z,80.50
2018-12-15T05:28:56.146Z,78.91
2018-12-15T05:31:24.500Z,82.26
2018-12-15T05:33:52.816Z,80.19
2018-12-15T05:36:21.123Z,80.37
2018-12-15T05:38:49.421Z,80.29
2018-12-15T05:41:17.705Z,79.49
2018-12-15T05:43:46.021Z,79.90
2018-12-15T05:46:14.479Z,79.23
2018-12-15T05:48:42.830Z,80.97
2018-12-15T05:51:11.153Z,81.98
2018-12-15T05:53:39.580Z,81.86
2018-12-15T05:56:07.934Z,80.35
2018-12-15T05:58:36.433Z,81.58
2018-12-15T06:01:04.710Z,81.77
2018-12-15T06:03:33.013Z,81.30
2018-12-15T06:06:01.293Z,82.35
2018-12-15T06:08:29.625Z,83.47
2018-12-15T06:10:57.910Z,83.46
2018-12-15T06:13:26.216Z,84.57
2018-12-15T06:15:54.496Z,86.72
2018-12-15T06:18:22.812Z,86.34
2018-12-15T06:20:51.166Z,87.02
2018-12-15T06:23:19.477Z,86.11
2018-12-15T06:25:54.229Z,87.77
2018-12-15T06:28:22.521Z,88.72
2018-12-15T06:30:50.825Z,86.01
2018-12-15T06:33:19.110Z,87.13
2018-12-15T06:35:47.396Z,87.06
2018-12-15T06:38:15.693Z,87.05
2018-12-15T06:40:44.045Z,88.27
2018-12-15T06:43:12.412Z,88.46
2018-12-15T06:45:40.687Z,88.92
2018-12-15T06:48:09.076Z,88.50
2018-12-15T06:50:37.409Z,88.90
2018-12-15T06:53:05.714Z,88.82
2018-12-15T06:55:35.037Z,88.15
2018-12-15T06:58:03.402Z,88.75
2018-12-15T07:00:31.685Z,88.30
2018-12-15T07:02:59.978Z,89.33
2018-12-15T07:05:28.293Z,88.66
2018-12-15T07:07:56.801Z,89.65
2018-12-15T07:10:25.087Z,88.99
2018-12-15T07:12:53.437Z,89.22
2018-12-15T07:15:21.816Z,89.53
2018-12-15T07:17:50.119Z,89.87
2018-12-15T07:20:18.394Z,90.16
2018-12-15T07:22:46.713Z,90.36
2018-12-15T07:25:14.989Z,90.02
2018-12-15T07:27:43.280Z,90.62
2018-12-15T07:30:11.655Z,90.18
2018-12-15T07:32:39.970Z,91.33
2018-12-15T07:35:08.467Z,89.75
2018-12-15T07:37:36.778Z,90.45
2018-12-15T07:40:05.907Z,90.47
2018-12-15T07:42:34.258Z,91.33
2018-12-15T07:45:02.670Z,91.09
2018-12-15T07:47:31.087Z,92.15
2018-12-15T07:49:59.476Z,91.95
2018-12-15T07:52:27.788Z,91.68
2018-12-15T07:54:56.157Z,91.33
2018-12-15T07:57:25.850Z,91.29
2018-12-15T07:59:55.050Z,91.58
2018-12-15T08:02:23.332Z,90.85
2018-12-15T08:04:51.670Z,90.51
2018-12-15T08:07:20.268Z,90.56
2018-12-15T08:09:50.373Z,90.74
2018-12-15T08:12:24.201Z,90.33
2018-12-15T08:14:52.805Z,89.47
2018-12-15T08:17:21.357Z,88.84
2018-12-15T08:19:50.113Z,88.96
2018-12-15T08:22:18.387Z,90.03
2018-12-15T08:24:46.837Z,89.53
2018-12-15T08:27:15.332Z,90.22
2018-12-15T08:29:43.657Z,90.20
2018-12-15T08:32:11.960Z,89.32
2018-12-15T08:34:40.408Z,89.53
2018-12-15T08:37:08.785Z,89.68
2018-12-15T08:39:37.097Z,89.72
2018-12-15T08:42:05.409Z,87.14
2018-12-15T08:44:33.714Z,87.35
2018-12-15T08:47:02.104Z,87.87
2018-12-15T08:49:30.409Z,87.57
2018-12-15T08:51:58.766Z,87.04
2018-12-15T08:54:27.294Z,88.06
2018-12-15T08:56:55.832Z,87.56
2018-12-15T08:59:24.922Z,87.70
2018-12-15T09:01:53.489Z,86.78
2018-12-15T09:04:22.152Z,87.77
2018-12-15T09:06:50.699Z,86.81
2018-12-15T09:09:19.084Z,87.44
2018-12-15T09:11:47.357Z,88.11
2018-12-15T09:14:15.985Z,87.98
2018-12-15T09:16:44.282Z,87.95
2018-12-15T09:19:12.602Z,87.92
2018-12-15T09:21:41.004Z,88.20
2018-12-15T09:24:09.341Z,88.08
2018-12-15T09:26:37.773Z,86.77
2018-12-15T09:29:06.080Z,86.98
2018-12-15T09:31:34.370Z,86.87
2018-12-15T09:34:02.880Z,86.09
2018-12-15T09:36:31.284Z,86.32
2018-12-15T09:38:59.806Z,86.24
2018-12-15T09:41:28.242Z,86.03
2018-12-15T09:43:56.795Z,86.11
2018-12-15T09:46:25.326Z,86.74
2018-12-15T09:48:53.825Z,86.98
2018-12-15T09:51:22.161Z,86.93
2018-12-15T09:53:50.632Z,86.50
2018-12-15T09:56:19.181Z,87.09
2018-12-15T09:58:48.729Z,86.31
2018-12-15T10:01:18.777Z,86.91
2018-12-15T10:03:47.426Z,87.54
2018-12-15T10:06:15.741Z,87.10
2018-12-15T10:08:44.060Z,86.87
2018-12-15T10:11:12.388Z,87.23
2018-12-15T10:13:40.792Z,86.96
2018-12-15T10:16:09.593Z,87.44
2018-12-15T10:18:38.064Z,88.38
2018-12-15T10:21:06.404Z,88.19
2018-12-15T10:23:34.916Z,88.06
2018-12-15T10:26:03.300Z,87.52
2018-12-15T10:28:31.642Z,87.33
2018-12-15T10:31:05.304Z,87.42
2018-12-15T10:33:33.654Z,87.58
2018-12-15T10:36:01.931Z,87.97
2018-12-15T10:38:30.294Z,88.74
2018-12-15T10:40:58.650Z,88.33
2018-12-15T10:43:26.977Z,87.63
2018-12-15T10:45:55.419Z,86.80
2018-12-15T10:48:23.746Z,87.09
2018-12-15T10:50:52.018Z,87.02
2018-12-15T10:53:20.328Z,86.87
2018-12-15T10:55:48.625Z,87.10
2018-12-15T10:58:16.992Z,87.99
2018-12-15T11:00:50.745Z,86.64
2018-12-15T11:03:19.047Z,88.04
2018-12-15T11:05:47.595Z,87.32
2018-12-15T11:08:15.887Z,87.16
2018-12-15T11:10:44.313Z,86.76
2018-12-15T11:13:12.669Z,87.14
2018-12-15T11:15:41.098Z,86.72
2018-12-15T11:18:09.438Z,86.54
2018-12-15T11:20:37.756Z,86.03
2018-12-15T11:23:06.078Z,85.72
2018-12-15T11:25:34.396Z,85.97
2018-12-15T11:28:02.728Z,85.62
2018-12-15T11:30:31.041Z,86.65
2018-12-15T11:32:59.378Z,86.07
2018-12-15T11:35:27.799Z,85.34
2018-12-15T11:37:56.090Z,85.16
2018-12-15T11:40:24.622Z,84.43
2018-12-15T11:42:52.892Z,84.83
2018-12-15T11:45:21.310Z,79.99
2018-12-15T11:47:49.641Z,79.52
2018-12-15T11:50:17.968Z,77.67
2018-12-15T11:52:46.288Z,81.30
2018-12-15T11:55:14.839Z,81.84
2018-12-15T11:57:43.185Z,79.67
2018-12-15T12:00:12.254Z,79.16
2018-12-15T12:02:40.949Z,79.31
2018-12-15T12:05:09.562Z,79.56
2018-12-15T12:07:37.872Z,80.33
2018-12-15T12:10:07.005Z,80.25
2018-12-15T12:12:35.402Z,78.85
2018-12-15T12:15:06.523Z,79.97
2018-12-15T12:17:34.894Z,77.88
2018-12-15T12:20:04.350Z,76.47
2018-12-15T12:22:32.686Z,77.23
2018-12-15T12:25:01.235Z,76.30
2018-12-15T12:27:29.605Z,75.68
2018-12-15T12:29:58.062Z,75.82
2018-12-15T12:32:26.375Z,77.12
2018-12-15T12:34:54.723Z,75.21
2018-12-15T12:37:23.032Z,75.38
2018-12-15T12:39:51.402Z,73.87
2018-12-15T12:42:19.708Z,75.78
2018-12-15T12:44:48.213Z,75.53
2018-12-15T12:47:16.545Z,74.86
2018-12-15T12:49:44.996Z,75.55
2018-12-15T12:52:13.296Z,74.08
2018-12-15T12:54:41.627Z,76.59
2018-12-15T12:57:09.932Z,77.03
2018-12-15T12:59:38.270Z,77.44
2018-12-15T13:02:06.613Z,79.16
2018-12-15T13:04:35.041Z,79.93
2018-12-15T13:07:03.366Z,78.98
2018-12-15T13:09:31.721Z,80.52
2018-12-15T13:12:00.126Z,79.60
2018-12-15T13:14:28.505Z,78.96
2018-12-15T13:16:56.868Z,78.37
2018-12-15T13:19:25.295Z,78.39
2018-12-15T13:21:53.678Z,79.49
2018-12-15T13:24:22.074Z,80.04
2018-12-15T13:26:50.459Z,78.73
2018-12-15T13:29:18.897Z,77.72
2018-12-15T13:31:47.229Z,78.02
2018-12-15T13:34:15.784Z,78.25
2018-12-15T13:36:44.908Z,78.11
2018-12-15T13:39:13.331Z,78.39
2018-12-15T13:41:41.633Z,79.64
2018-12-15T13:44:09.937Z,79.32
2018-12-15T13:46:38.353Z,78.84
2018-12-15T13:49:06.704Z,79.55
2018-12-15T13:51:35.084Z,79.15
2018-12-15T13:54:03.530Z,80.21
2018-12-15T13:56:31.849Z,81.26
2018-12-15T13:59:00.312Z,80.43
2018-12-15T14:01:28.828Z,81.18
2018-12-15T14:03:57.151Z,80.88
2018-12-15T14:06:25.532Z,82.04
2018-12-15T14:08:53.912Z,81.77
2018-12-15T14:11:22.258Z,82.67
2018-12-15T14:13:50.577Z,82.48
2018-12-15T14:16:18.974Z,82.16
2018-12-15T14:18:47.260Z,83.15
2018-12-15T14:21:16.059Z,83.55
2018-12-15T14:23:44.398Z,83.26
2018-12-15T14:26:12.813Z,82.80
2018-12-15T14:28:41.141Z,82.72
2018-12-15T14:31:09.564Z,83.22
2018-12-15T14:33:37.981Z,83.15
2018-12-15T14:36:12.184Z,83.47
2018-12-15T14:38:43.642Z,83.97
2018-12-15T14:41:19.065Z,83.63
2018-12-15T14:43:50.329Z,82.61
2018-12-15T14:46:21.310Z,83.41
2018-12-15T14:48:51.876Z,82.82
2018-12-15T14:51:26.255Z,82.20
2018-12-15T14:53:58.769Z,82.18
2018-12-15T14:56:31.413Z,81.37
2018-12-15T14:59:03.014Z,81.92
2018-12-15T15:01:34.504Z,82.01
2018-12-15T15:04:05.201Z,80.93
2018-12-15T15:06:38.085Z,81.07
2018-12-15T15:09:09.939Z,80.18
2018-12-15T15:11:41.320Z,80.03
2018-12-15T15:14:14.164Z,78.88
2018-12-15T15:16:45.842Z,78.52
2018-12-15T15:19:17.227Z,79.04
2018-12-15T15:21:49.171Z,79.34
2018-12-15T15:24:21.353Z,79.40
2018-12-15T15:26:51.065Z,78.25
2018-12-15T15:29:21.891Z,79.04
2018-12-15T15:31:52.864Z,79.29
2018-12-15T15:34:24.411Z,79.73
2018-12-15T15:36:54.293Z,80.15
2018-12-15T15:39:25.636Z,80.34
2018-12-15T15:41:58.188Z,78.84
2018-12-15T15:44:29.326Z,79.75
2018-12-15T15:47:03.020Z,80.44
2018-12-15T15:52:12.784Z,78.92
2018-12-15T15:54:45.226Z,78.42
2018-12-15T15:57:18.230Z,78.55
2018-12-15T15:59:52.538Z,77.60
2018-12-15T16:02:22.889Z,77.77
2018-12-15T16:04:53.876Z,77.21
2018-12-15T16:07:27.611Z,77.90
2018-12-15T16:09:58.703Z,76.92
2018-12-15T16:12:30.165Z,77.00
2018-12-15T16:15:01.824Z,77.28
2018-12-15T16:17:51.016Z,77.90
2018-12-15T16:20:22.106Z,78.38
2018-12-15T16:22:53.266Z,78.38
2018-12-15T16:25:25.699Z,79.65
2018-12-15T16:27:59.332Z,79.60
2018-12-15T16:34:24.126Z,78.58
2018-12-15T16:36:58.892Z,79.62
2018-12-15T16:39:31.477Z,79.48
2018-12-15T16:42:04.514Z,80.97
2018-12-15T16:44:40.013Z,80.38
2018-12-15T16:47:12.371Z,80.05
2018-12-15T16:49:43.434Z,79.63
2018-12-15T16:52:18.235Z,80.45
2018-12-15T16:54:50.009Z,80.49
2018-12-15T16:57:21.547Z,80.87
2018-12-15T16:59:57.010Z,81.11
2018-12-15T17:02:32.939Z,80.16
2018-12-15T17:05:05.537Z,80.38
2018-12-15T17:07:37.355Z,81.02
2018-12-15T17:10:13.512Z,80.33
2018-12-15T17:12:45.528Z,80.61
2018-12-15T17:15:17.888Z,80.89
2018-12-15T17:17:50.477Z,79.75
2018-12-15T17:20:23.281Z,80.35
2018-12-15T17:22:53.867Z,80.79
2018-12-15T17:25:27.899Z,80.93
2018-12-15T17:27:59.422Z,81.26
2018-12-15T17:30:31.040Z,79.95
2018-12-15T17:33:03.405Z,79.73
2018-12-15T17:35:31.888Z,80.41
2018-12-15T17:38:00.301Z,79.98
2018-12-15T17:40:28.771Z,79.91
2018-12-15T17:42:57.168Z,80.33
2018-12-15T17:45:25.490Z,79.70
2018-12-15T17:47:54.003Z,79.47
2018-12-15T17:50:22.370Z,80.39
2018-12-15T17:52:52.217Z,79.08
2018-12-15T17:55:20.732Z,79.03
2018-12-15T17:57:49.257Z,79.55
2018-12-15T18:00:17.876Z,79.88
2018-12-15T18:02:46.336Z,79.71
2018-12-15T18:05:14.739Z,79.13
2018-12-15T18:07:44.099Z,79.28
2018-12-15T18:10:13.565Z,79.34
2018-12-15T18:12:42.552Z,80.63
2018-12-15T18:15:10.986Z,79.54
2018-12-15T18:17:39.269Z,80.02
2018-12-15T18:20:09.464Z,79.19
2018-12-15T18:22:37.773Z,79.83
2018-12-15T18:25:06.764Z,79.44
2018-12-15T18:27:35.063Z,79.61
2018-12-15T18:30:03.804Z,80.03
2018-12-15T18:32:32.112Z,79.53
2018-12-15T18:35:00.448Z,79.43
2018-12-15T18:37:28.753Z,79.89
2018-12-15T18:39:57.100Z,79.83
2018-12-15T18:42:25.414Z,79.47
2018-12-15T18:44:53.766Z,80.40
2018-12-15T18:47:22.059Z,80.95
2018-12-15T18:49:50.427Z,81.00
2018-12-15T18:52:18.910Z,81.17
2018-12-15T18:54:47.228Z,81.09
2018-12-15T18:57:15.651Z,80.82
2018-12-15T18:59:44.028Z,81.78
2018-12-15T19:02:12.501Z,80.91
2018-12-15T19:04:40.938Z,80.91
2018-12-15T19:07:09.452Z,81.41
2018-12-15T19:09:38.022Z,81.80
2018-12-15T19:12:06.556Z,80.84
2018-12-15T19:14:34.894Z,80.89
2018-12-15T19:17:03.228Z,80.42
2018-12-15T19:19:31.620Z,80.86
2018-12-15T19:21:59.933Z,80.13
2018-12-15T19:24:30.628Z,79.85
2018-12-15T19:26:58.950Z,80.15
2018-12-15T19:29:27.328Z,79.76
2018-12-15T19:31:55.681Z,80.00
2018-12-15T19:34:24.121Z,79.75
2018-12-15T19:36:52.572Z,78.97
2018-12-15T19:39:21.814Z,79.46
2018-12-15T19:41:50.144Z,78.30
2018-12-15T19:44:18.586Z,78.90
2018-12-15T19:46:46.914Z,78.84
2018-12-15T19:49:15.198Z,78.84
2018-12-15T19:51:43.617Z,79.67
2018-12-15T19:54:12.411Z,79.45
2018-12-15T19:56:41.024Z,80.19
2018-12-15T19:59:13.614Z,79.18
2018-12-15T20:01:43.129Z,80.35
2018-12-15T20:04:15.079Z,80.30
2018-12-15T20:06:44.025Z,79.73
2018-12-15T20:09:12.995Z,79.18
2018-12-15T20:11:41.848Z,79.42
2018-12-15T20:14:10.667Z,79.03
2018-12-15T20:16:39.465Z,79.08
2018-12-15T20:19:08.177Z,79.79
2018-12-15T20:21:37.261Z,79.63
2018-12-15T20:24:06.179Z,80.32
2018-12-15T20:26:36.168Z,80.02
2018-12-15T20:29:05.499Z,80.42
2018-12-15T20:31:35.456Z,80.16
2018-12-15T20:34:04.667Z,80.41
2018-12-15T20:36:33.063Z,80.67
2018-12-15T20:39:01.485Z,80.42
2018-12-15T20:41:31.891Z,80.10
2018-12-15T20:44:00.476Z,80.51
2018-12-15T20:46:28.821Z,81.07
2018-12-15T20:48:57.150Z,80.58
2018-12-15T20:51:25.547Z,81.00
2018-12-15T20:53:54.006Z,80.35
2018-12-15T20:56:22.520Z,80.63
2018-12-15T20:58:51.060Z,80.47
2018-12-15T21:01:19.410Z,79.44
2018-12-15T21:03:47.822Z,80.37
2018-12-15T21:06:16.169Z,80.42
2018-12-15T21:08:44.580Z,80.64
2018-12-15T21:11:13.054Z,80.28
2018-12-15T21:13:42.543Z,79.77
2018-12-15T21:16:11.006Z,80.76
2018-12-15T21:18:39.416Z,81.24
2018-12-15T21:21:07.724Z,81.46
2018-12-15T21:23:36.063Z,80.55
2018-12-15T21:26:04.606Z,81.31
2018-12-15T21:28:33.066Z,82.06
2018-12-15T21:31:01.461Z,82.15
2018-12-15T21:33:30.129Z,82.27
2018-12-15T21:35:58.565Z,82.66
2018-12-15T21:38:27.037Z,82.15
2018-12-15T21:40:55.385Z,82.62
2018-12-15T21:43:23.705Z,82.46
2018-12-15T21:45:52.124Z,82.90
2018-12-15T21:48:20.689Z,82.98
2018-12-15T21:50:49.030Z,83.86
2018-12-15T21:53:17.374Z,82.55
2018-12-15T21:55:45.699Z,83.09
2018-12-15T21:58:14.075Z,83.43
2018-12-15T22:00:42.591Z,83.60
2018-12-15T22:03:11.274Z,83.45
2018-12-15T22:05:39.641Z,84.09
2018-12-15T22:08:09.913Z,83.70
2018-12-15T22:10:38.520Z,84.17
2018-12-15T22:13:07.838Z,84.17
2018-12-15T22:15:36.609Z,83.19
2018-12-15T22:18:05.072Z,84.52
2018-12-15T22:20:33.778Z,83.97
2018-12-15T22:23:02.229Z,84.32
2018-12-15T22:25:30.691Z,83.93
2018-12-15T22:27:59.050Z,83.79
2018-12-15T22:30:27.355Z,84.25
2018-12-15T22:32:55.678Z,84.60
2018-12-15T22:35:24.049Z,85.38
2018-12-15T22:37:52.373Z,85.49
2018-12-15T22:40:20.853Z,85.83
2018-12-15T22:42:49.148Z,85.50
2018-12-15T22:45:17.622Z,85.81
2018-12-15T22:47:45.959Z,85.82
2018-12-15T22:50:14.297Z,85.73
2018-12-15T22:52:42.642Z,85.91
2018-12-15T22:55:11.114Z,86.18
2018-12-15T22:57:39.417Z,86.26
2018-12-15T23:00:10.437Z,86.38
2018-12-15T23:02:38.745Z,86.36
2018-12-15T23:05:10.813Z,86.29
2018-12-15T23:07:39.413Z,86.59
2018-12-15T23:10:08.571Z,86.41
2018-12-15T23:12:36.900Z,86.40
2018-12-15T23:15:11.420Z,86.64
2018-12-15T23:17:39.754Z,86.50
2018-12-15T23:20:08.721Z,86.37
2018-12-15T23:22:37.060Z,86.89
2018-12-15T23:25:05.685Z,86.10
2018-12-15T23:27:33.992Z,86.63
2018-12-15T23:30:02.549Z,87.08
2018-12-15T23:32:30.874Z,86.89
2018-12-15T23:34:59.403Z,86.76
2018-12-15T23:37:27.808Z,87.08
2018-12-15T23:39:56.224Z,86.78
2018-12-15T23:42:24.621Z,87.27
2018-12-15T23:44:52.948Z,87.45
2018-12-15T23:47:21.491Z,87.14
2018-12-15T23:49:49.869Z,87.61
2018-12-15T23:52:23.233Z,86.93
2018-12-15T23:54:48.574Z,87.00
2018-12-15T23:57:16.922Z,87.14
2018-12-15T23:59:45.322Z,87.03
